Time;durP1;ratioP1;P1;durP2;ratioP2;P2;SDS_P1;SDS_P2;PMS_P1;PMS_P2;Temp;Humidity;BMP_temperature;BMP_pressure;BME280_temperature;BME280_humidity;BME280_pressure;Samples;Min_cycle;Max_cycle;Signal;HPM_P1;HPM_P2
2022/01/10 00:01:43;;;;;;;3.25;2.95;;;;;;;11.02;37.44;98419.09;1769318;81;20983;-65
2022/01/10 00:04:10;;;;;;;3.22;2.92;;;;;;;11.00;37.60;98429.91;1742600;81;20999;-67
2022/01/10 00:06:37;;;;;;;4.30;3.90;;;;;;;11.01;37.63;98425.42;1766098;81;20943;-67
2022/01/10 00:09:05;;;;;;;4.10;3.52;;;;;;;11.07;37.63;98422.80;1768666;80;20920;-67
2022/01/10 00:11:31;;;;;;;4.17;3.77;;;;;;;11.07;37.52;98424.13;1775548;78;21581;-65
2022/01/10 00:13:58;;;;;;;3.98;3.40;;;;;;;11.05;37.47;98431.47;1783413;79;21402;-64
2022/01/10 00:16:26;;;;;;;4.83;3.80;;;;;;;10.95;37.56;98432.34;1800135;79;20935;-64
2022/01/10 00:18:52;;;;;;;4.47;3.33;;;;;;;10.84;37.66;98438.75;1806924;79;20946;-66
2022/01/10 00:21:19;;;;;;;4.58;4.03;;;;;;;10.86;37.67;98443.36;1792170;79;21143;-65
2022/01/10 00:23:46;;;;;;;4.20;3.90;;;;;;;10.85;37.65;98451.84;1802520;79;20924;-67
2022/01/10 00:26:13;;;;;;;5.45;4.95;;;;;;;10.91;37.67;98459.05;1801035;78;20856;-65
2022/01/10 00:28:41;;;;;;;4.83;4.42;;;;;;;10.91;37.73;98467.54;1779117;79;37745;-66
2022/01/10 00:31:08;;;;;;;3.72;3.42;;;;;;;10.89;37.58;98480.23;1791895;79;20958;-66
2022/01/10 00:33:35;;;;;;;3.83;3.10;;;;;;;10.83;37.41;98479.17;1747333;81;21148;-65
2022/01/10 00:36:02;;;;;;;3.33;2.90;;;;;;;10.72;37.44;98482.87;1758847;81;20986;-66
2022/01/10 00:38:30;;;;;;;3.98;3.40;;;;;;;10.60;37.52;98484.44;1767090;80;21473;-67
2022/01/10 00:40:57;;;;;;;3.72;2.90;;;;;;;10.53;37.50;98490.52;1729819;82;20856;-67
2022/01/10 00:43:35;;;;;;;3.47;3.17;;;;;;;10.49;37.54;98493.77;1745909;81;21395;-66
2022/01/10 00:46:01;;;;;;;3.45;3.05;;;;;;;10.48;37.62;98492.14;1726121;81;21853;-65
2022/01/10 00:48:28;;;;;;;4.47;2.92;;;;;;;10.39;37.67;98500.76;1765539;80;21441;-67
2022/01/10 00:50:54;;;;;;;4.58;3.15;;;;;;;10.35;37.61;98498.69;1777231;79;20939;-66
2022/01/10 00:53:21;;;;;;;4.70;2.98;;;;;;;10.33;37.61;98500.69;1759525;81;21448;-66
2022/01/10 00:55:47;;;;;;;3.83;3.30;;;;;;;10.33;37.68;98500.69;1737928;80;21092;-66
2022/01/10 00:58:14;;;;;;;3.40;2.67;;;;;;;10.35;37.75;98499.48;1723946;82;21110;-65
2022/01/10 01:00:40;;;;;;;3.90;3.50;;;;;;;10.33;37.77;98500.19;1753077;81;21505;-66
2022/01/10 01:03:06;;;;;;;3.87;3.30;;;;;;;10.33;37.89;98500.19;1725443;80;21388;-65
2022/01/10 01:05:38;;;;;;;3.77;3.37;;;;;;;10.31;37.89;98504.05;1746608;81;20944;-66
2022/01/10 01:08:05;;;;;;;3.25;2.85;;;;;;;10.34;37.84;98499.69;1743897;81;20915;-67
2022/01/10 01:13:23;;;;;;;4.77;4.20;;;;;;;10.30;37.65;98497.91;1742085;81;20922;-67
2022/01/10 01:16:17;;;;;;;3.55;3.25;;;;;;;10.33;37.61;98494.88;1744984;81;20990;-65
2022/01/10 01:18:31;;;;;;;4.35;3.95;;;;;;;10.28;37.64;98493.80;1726269;81;21434;-65
2022/01/10 01:24:00;;;;;;;3.70;3.30;;;;;;;10.18;37.75;98492.80;1739829;81;20926;-67
2022/01/10 01:26:02;;;;;;;4.92;3.95;;;;;;;10.18;37.81;98500.78;1748128;81;20942;-67
2022/01/10 01:28:28;;;;;;;4.30;3.60;;;;;;;10.12;37.78;98508.64;1738570;81;20978;-67
2022/01/10 01:30:55;;;;;;;4.08;3.27;;;;;;;10.08;37.82;98516.20;1742210;81;20919;-65
2022/01/10 01:33:23;;;;;;;4.45;3.50;;;;;;;10.08;37.77;98519.36;1750584;81;21460;-65
2022/01/10 01:35:51;;;;;;;4.58;3.87;;;;;;;10.07;37.79;98519.02;1741402;81;21154;-65
2022/01/10 01:38:18;;;;;;;5.10;4.12;;;;;;;10.10;37.79;98523.97;1749397;81;20995;-66
2022/01/10 01:40:54;;;;;;;4.37;3.98;;;;;;;10.12;37.80;98525.45;1746884;81;21579;-66
2022/01/10 01:43:14;;;;;;;3.87;3.27;;;;;;;10.15;37.69;98528.23;1745120;81;20911;-66
2022/01/10 01:45:46;;;;;;;4.50;3.92;;;;;;;10.10;37.62;98530.11;1730675;81;20927;-67
2022/01/10 01:48:13;;;;;;;7.35;4.50;;;;;;;10.11;37.52;98532.27;1747976;81;21104;-65
2022/01/10 01:50:41;;;;;;;4.40;3.83;;;;;;;10.11;37.57;98538.41;1735240;81;21006;-65
2022/01/10 01:53:08;;;;;;;7.33;4.67;;;;;;;10.09;37.53;98536.95;1708155;81;21438;-67
2022/01/10 01:55:37;;;;;;;5.33;4.45;;;;;;;10.13;37.47;98538.23;1748905;81;21434;-65
2022/01/10 01:58:03;;;;;;;5.28;4.00;;;;;;;10.18;37.37;98541.15;1704909;81;21075;-65
2022/01/10 02:00:31;;;;;;;4.60;3.50;;;;;;;10.11;37.32;98538.91;1751956;81;20898;-67
2022/01/10 02:02:58;;;;;;;4.83;4.33;;;;;;;10.13;37.25;98551.03;1758211;80;21441;-68
2022/01/10 02:05:26;;;;;;;4.37;3.85;;;;;;;10.05;37.29;98548.95;1797222;78;20876;-67
2022/01/10 02:07:54;;;;;;;5.35;4.65;;;;;;;9.98;37.40;98550.73;1816812;79;20938;-67
2022/01/10 02:10:21;;;;;;;5.67;4.78;;;;;;;9.91;37.48;98549.32;1805730;78;21574;-66
2022/01/10 02:12:47;;;;;;;4.87;4.30;;;;;;;9.90;37.54;98555.66;1797224;78;21196;-67
2022/01/10 02:15:34;;;;;;;4.62;4.12;;;;;;;9.89;37.46;98557.49;1796733;78;20919;-66
2022/01/10 02:18:00;;;;;;;4.00;3.22;;;;;;;9.82;37.60;98555.78;1806298;78;20891;-67
2022/01/10 02:20:32;;;;;;;4.35;3.47;;;;;;;9.75;37.47;98550.91;1801915;79;20939;-67
2022/01/10 02:22:59;;;;;;;3.80;3.30;;;;;;;9.63;37.45;98555.86;1803211;79;20954;-67
2022/01/10 02:25:44;;;;;;;4.10;3.50;;;;;;;9.55;37.50;98556.47;1767452;80;21160;-68
2022/01/10 02:28:11;;;;;;;4.28;3.55;;;;;;;9.46;37.69;98565.56;1770542;80;21465;-65
2022/01/10 02:30:39;;;;;;;3.95;3.10;;;;;;;9.63;37.27;98561.17;1801553;78;21021;-67
2022/01/10 02:33:05;;;;;;;3.25;2.95;;;;;;;9.45;37.63;98566.05;1802834;78;21933;-69
2022/01/10 02:35:40;;;;;;;4.65;3.10;;;;;;;9.43;37.63;98564.09;1791743;78;20946;-68
2022/01/10 02:38:04;;;;;;;4.95;3.40;;;;;;;9.33;37.70;98559.05;1797622;78;21999;-66
2022/01/10 02:40:32;;;;;;;3.92;3.10;;;;;;;9.30;37.80;98562.10;1810231;78;20914;-67
2022/01/10 02:42:59;;;;;;;3.65;3.25;;;;;;;9.32;37.82;98569.87;1792872;78;21026;-67
2022/01/10 02:45:26;;;;;;;5.45;4.10;;;;;;;9.40;37.79;98566.28;1803926;79;20946;-66
2022/01/10 02:47:54;;;;;;;5.00;3.72;;;;;;;9.54;37.64;98573.42;1811692;78;20974;-67
2022/01/10 02:50:20;;;;;;;5.42;4.62;;;;;;;9.62;37.69;98580.76;1802013;78;21843;-67
2022/01/10 02:52:48;;;;;;;5.00;4.50;;;;;;;9.43;37.98;98581.85;1804140;78;20947;-66
2022/01/10 02:55:16;;;;;;;5.30;4.53;;;;;;;9.37;38.11;98589.22;1806439;78;20839;-66
2022/01/10 02:57:43;;;;;;;4.80;4.05;;;;;;;9.32;38.19;98591.10;1806481;78;20966;-68
2022/01/10 03:00:19;;;;;;;4.40;3.90;;;;;;;9.23;38.21;98590.86;1767711;80;20971;-68
2022/01/10 03:02:50;;;;;;;5.33;4.65;;;;;;;9.21;38.19;98595.03;1767524;80;21162;-67
2022/01/10 03:05:15;;;;;;;4.95;3.40;;;;;;;9.49;37.60;98593.87;1729389;80;21047;-66
2022/01/10 03:07:42;;;;;;;5.30;4.05;;;;;;;9.25;37.97;98600.28;1728288;81;20997;-68
2022/01/10 03:10:10;;;;;;;5.80;4.17;;;;;;;9.21;38.06;98603.48;1795629;78;20992;-67
2022/01/10 03:12:36;;;;;;;5.37;4.40;;;;;;;9.18;38.09;98608.66;1798013;79;21006;-67
2022/01/10 03:15:05;;;;;;;6.37;5.15;;;;;;;9.20;38.14;98623.09;1758505;81;21917;-69
2022/01/10 03:17:32;;;;;;;5.53;5.00;;;;;;;9.20;38.10;98613.28;1756244;80;20970;-67
2022/01/10 03:19:58;;;;;;;5.87;4.33;;;;;;;9.17;38.11;98621.63;1764211;79;21504;-67
2022/01/10 03:22:26;;;;;;;4.70;4.12;;;;;;;9.14;38.13;98622.48;1762243;79;21054;-65
2022/01/10 03:24:54;;;;;;;4.22;3.65;;;;;;;9.04;38.08;98628.06;1755670;81;20935;-66
2022/01/10 03:27:21;;;;;;;5.92;4.40;;;;;;;9.01;38.11;98628.92;1753700;81;21171;-70
2022/01/10 03:29:49;;;;;;;4.15;3.70;;;;;;;8.93;38.18;98623.19;1766795;79;20990;-64
2022/01/10 03:32:15;;;;;;;5.35;4.50;;;;;;;8.96;38.25;98635.27;1777969;79;21037;-65
2022/01/10 03:34:42;;;;;;;5.00;4.40;;;;;;;9.03;38.22;98646.30;1757047;80;21046;-67
2022/01/10 03:37:09;;;;;;;4.80;3.92;;;;;;;9.09;38.24;98649.56;1750188;81;20982;-68
2022/01/10 03:39:36;;;;;;;5.10;4.47;;;;;;;9.14;38.10;98651.17;1761304;79;21150;-66
2022/01/10 03:42:04;;;;;;;6.05;4.12;;;;;;;9.18;38.12;98651.62;1770954;79;21066;-65
2022/01/10 03:44:30;;;;;;;5.22;4.20;;;;;;;9.20;38.03;98657.59;1756693;81;20982;-65
2022/01/10 03:46:57;;;;;;;5.10;4.10;;;;;;;9.19;38.01;98661.23;1760921;80;20954;-67
2022/01/10 03:49:25;;;;;;;4.92;3.77;;;;;;;9.23;37.96;98670.47;1773266;79;20955;-67
2022/01/10 03:51:52;;;;;;;5.00;4.10;;;;;;;9.25;37.90;98677.25;1760479;79;21711;-65
2022/01/10 03:54:18;;;;;;;4.33;3.60;;;;;;;9.25;37.86;98682.55;1757095;79;21580;-67
2022/01/10 03:56:47;;;;;;;5.17;3.60;;;;;;;9.25;37.83;98681.75;1764922;80;20891;-65
2022/01/10 03:59:14;;;;;;;4.95;3.75;;;;;;;9.29;37.76;98681.70;1755619;79;20961;-65
2022/01/10 04:01:41;;;;;;;6.15;4.37;;;;;;;9.29;37.60;98680.38;1761391;79;20974;-66
2022/01/10 04:04:08;;;;;;;5.10;3.67;;;;;;;9.30;37.44;98682.87;1755038;81;21044;-66
2022/01/10 04:06:34;;;;;;;4.72;3.77;;;;;;;9.23;37.47;98683.74;1754544;80;21438;-68
2022/01/10 04:09:03;;;;;;;4.90;3.95;;;;;;;9.25;37.37;98693.17;1762570;79;21002;-67
2022/01/10 04:11:30;;;;;;;6.37;4.75;;;;;;;9.25;37.35;98693.17;1752151;79;22062;-67
2022/01/10 04:13:56;;;;;;;4.17;3.52;;;;;;;9.21;37.28;98693.72;1795666;79;21029;-67
2022/01/10 04:16:23;;;;;;;4.90;3.87;;;;;;;9.19;37.27;98691.27;1809505;78;20998;-67
2022/01/10 04:18:49;;;;;;;5.42;4.15;;;;;;;9.13;37.25;98697.77;1800065;78;21524;-66
2022/01/10 04:21:16;;;;;;;4.97;3.80;;;;;;;9.10;37.20;98701.61;1790016;78;21405;-65
2022/01/10 04:23:43;;;;;;;4.20;3.77;;;;;;;9.10;37.18;98696.80;1810581;79;20998;-67
2022/01/10 04:26:09;;;;;;;5.70;3.80;;;;;;;9.05;37.24;98694.69;1795715;78;21445;-66
2022/01/10 04:28:37;;;;;;;5.15;4.12;;;;;;;9.00;37.36;98697.56;1797284;78;21166;-67
2022/01/10 04:31:05;;;;;;;5.35;4.20;;;;;;;9.07;37.31;98702.49;1808640;78;20855;-68
2022/01/10 04:33:32;;;;;;;5.20;3.90;;;;;;;9.04;37.39;98702.84;1796555;78;20978;-68
2022/01/10 04:35:58;;;;;;;6.75;4.70;;;;;;;9.05;37.35;98708.45;1802342;79;20887;-68
2022/01/10 04:38:26;;;;;;;6.90;4.90;;;;;;;9.08;37.30;98716.06;1810267;78;21097;-67
2022/01/10 04:40:53;;;;;;;7.85;4.65;;;;;;;9.14;37.27;98720.17;1799352;78;21129;-67
2022/01/10 04:43:20;;;;;;;4.70;4.08;;;;;;;9.19;37.29;98720.45;1798555;78;21461;-66
2022/01/10 04:45:47;;;;;;;6.83;5.03;;;;;;;9.23;37.28;98726.20;1808861;78;21501;-70
2022/01/10 04:48:18;;;;;;;5.33;4.50;;;;;;;9.24;37.20;98716.75;1804654;79;20911;-66
2022/01/10 04:53:21;;;;;;;7.28;4.40;;;;;;;9.25;37.10;98725.55;1809866;78;21818;-68
2022/01/10 04:55:48;;;;;;;5.58;4.35;;;;;;;9.26;37.09;98729.34;1802322;78;20944;-66
2022/01/10 04:58:14;;;;;;;5.70;4.85;;;;;;;9.35;36.94;98731.42;1802534;78;21033;-64
2022/01/10 05:00:41;;;;;;;8.75;5.35;;;;;;;9.26;36.96;98737.80;1797668;79;21050;-66
2022/01/10 05:03:07;;;;;;;6.45;5.00;;;;;;;9.25;36.94;98740.14;1811991;78;20974;-65
2022/01/10 05:05:34;;;;;;;7.08;5.08;;;;;;;9.21;37.01;98743.65;1794947;78;21143;-66
2022/01/10 05:08:01;;;;;;;6.72;4.80;;;;;;;9.12;37.19;98739.43;1800391;78;20919;-67
2022/01/10 05:10:28;;;;;;;5.30;4.78;;;;;;;9.16;37.26;98739.88;1809173;78;21030;-69
2022/01/10 05:12:54;;;;;;;6.10;4.95;;;;;;;9.00;37.47;98742.16;1799553;78;20930;-65
2022/01/10 05:15:21;;;;;;;8.33;5.37;;;;;;;8.94;37.57;98738.09;1790252;79;20938;-66
2022/01/10 05:17:47;;;;;;;5.40;4.85;;;;;;;9.02;37.52;98742.00;1805135;78;21142;-66
2022/01/10 05:20:14;;;;;;;6.40;4.97;;;;;;;9.04;37.48;98742.15;1790742;78;21022;-65
2022/01/10 05:22:41;;;;;;;6.95;5.10;;;;;;;9.04;37.45;98742.64;1798331;78;21492;-67
2022/01/10 05:25:07;;;;;;;6.75;5.28;;;;;;;8.96;37.50;98744.03;1808262;79;20914;-66
2022/01/10 05:27:35;;;;;;;7.95;5.55;;;;;;;8.96;37.54;98751.49;1808852;78;20874;-64
2022/01/10 05:30:04;;;;;;;9.70;6.67;;;;;;;8.99;37.59;98757.77;1800997;78;21150;-65
2022/01/10 05:32:32;;;;;;;6.65;5.60;;;;;;;8.99;37.64;98756.95;1807312;78;21080;-64
2022/01/10 05:35:08;;;;;;;9.18;5.85;;;;;;;8.97;37.68;98755.78;1796919;79;20891;-63
2022/01/10 05:37:35;;;;;;;8.85;6.55;;;;;;;9.04;37.68;98762.54;1801042;78;21481;-63
2022/01/10 05:40:01;;;;;;;8.88;6.85;;;;;;;9.07;37.59;98758.21;1755746;80;20950;-65
2022/01/10 05:42:28;;;;;;;8.18;6.50;;;;;;;9.06;37.64;98759.20;1763479;80;21914;-62
2022/01/10 05:44:54;;;;;;;10.05;7.62;;;;;;;9.01;37.62;98761.56;1799162;78;20879;-63
2022/01/10 05:47:21;;;;;;;11.20;8.60;;;;;;;9.00;37.58;98765.21;1805639;78;21005;-65
2022/01/10 05:49:49;;;;;;;10.93;8.63;;;;;;;9.06;37.56;98767.99;1812935;79;20918;-64
2022/01/10 05:52:17;;;;;;;12.07;8.75;;;;;;;9.11;37.54;98778.06;1801193;79;20863;-66
2022/01/10 05:54:46;;;;;;;10.28;7.65;;;;;;;9.14;37.63;98777.72;1791361;78;21061;-68
2022/01/10 05:57:14;;;;;;;9.90;7.45;;;;;;;9.25;37.49;98784.73;1803094;78;20864;-67
2022/01/10 05:59:42;;;;;;;7.67;5.90;;;;;;;9.31;37.50;98793.32;1810154;79;20927;-64
2022/01/10 06:02:09;;;;;;;7.15;5.42;;;;;;;9.41;37.46;98802.36;1806109;78;21089;-65
2022/01/10 06:04:36;;;;;;;9.88;6.92;;;;;;;9.53;37.41;98809.41;1772114;80;20919;-68
2022/01/10 06:07:09;;;;;;;6.90;5.72;;;;;;;9.58;37.31;98814.50;1771334;80;21143;-65
2022/01/10 06:09:35;;;;;;;8.40;6.15;;;;;;;9.74;37.14;98823.66;1816776;78;20844;-63
2022/01/10 06:12:03;;;;;;;7.85;6.10;;;;;;;9.82;36.90;98833.38;1806156;78;20934;-67
2022/01/10 06:14:31;;;;;;;7.72;6.12;;;;;;;9.85;36.74;98837.80;1755498;80;20999;-65
2022/01/10 06:16:58;;;;;;;7.78;6.72;;;;;;;9.80;36.68;98841.50;1776807;80;20851;-65
2022/01/10 06:19:24;;;;;;;9.45;6.85;;;;;;;9.73;36.69;98844.56;1751859;80;21151;-65
2022/01/10 06:21:51;;;;;;;6.50;5.33;;;;;;;9.67;36.55;98847.93;1769560;80;20997;-64
2022/01/10 06:24:18;;;;;;;8.40;5.28;;;;;;;9.60;36.47;98856.80;1761051;80;21393;-63
2022/01/10 06:26:44;;;;;;;7.00;5.62;;;;;;;9.55;36.50;98867.96;1766781;80;20951;-65
2022/01/10 06:29:11;;;;;;;7.78;5.50;;;;;;;9.56;36.47;98874.94;1764516;80;20939;-65
2022/01/10 06:31:37;;;;;;;6.80;4.83;;;;;;;9.61;36.44;98871.73;1774311;80;21155;-65
2022/01/10 06:34:06;;;;;;;6.92;5.37;;;;;;;9.70;36.38;98874.63;1765541;80;20887;-64
2022/01/10 06:36:33;;;;;;;8.20;5.87;;;;;;;9.76;36.14;98878.74;1768943;80;21064;-64
2022/01/10 06:38:59;;;;;;;6.05;5.00;;;;;;;9.67;36.11;98879.00;1779323;80;21540;-64
2022/01/10 06:41:26;;;;;;;8.00;5.62;;;;;;;9.54;36.23;98886.22;1775445;80;20979;-64
2022/01/10 06:43:52;;;;;;;6.92;5.65;;;;;;;9.44;36.25;98896.78;1765434;80;21180;-64
2022/01/10 06:46:20;;;;;;;7.10;5.55;;;;;;;9.46;36.18;98901.41;1769685;80;21552;-66
2022/01/10 06:48:47;;;;;;;8.63;5.17;;;;;;;9.51;36.13;98898.55;1777028;80;20997;-65
2022/01/10 06:51:13;;;;;;;6.08;4.50;;;;;;;9.49;36.13;98902.38;1762390;80;21482;-65
2022/01/10 06:53:42;;;;;;;7.83;4.90;;;;;;;9.52;36.18;98902.83;1758595;80;21552;-68
2022/01/10 06:56:08;;;;;;;6.78;4.95;;;;;;;9.65;36.13;98908.38;1777540;80;21114;-66
2022/01/10 06:58:36;;;;;;;6.37;5.37;;;;;;;9.77;36.08;98908.30;1766611;80;20887;-65
2022/01/10 07:01:03;;;;;;;6.75;4.85;;;;;;;10.04;35.78;98907.41;1759615;80;20939;-64
2022/01/10 07:03:29;;;;;;;5.78;4.60;;;;;;;10.04;35.67;98907.41;1759588;80;21062;-65
2022/01/10 07:05:57;;;;;;;6.55;5.50;;;;;;;10.06;35.65;98914.69;1759412;80;21473;-66
2022/01/10 07:08:25;;;;;;;6.78;5.45;;;;;;;10.10;35.63;98910.64;1764422;80;21872;-66
2022/01/10 07:10:54;;;;;;;9.70;7.37;;;;;;;10.17;35.64;98917.75;1772238;80;21674;-65
2022/01/10 07:13:24;;;;;;;12.35;7.95;;;;;;;10.31;35.43;98919.61;1764166;80;20978;-67
2022/01/10 07:15:51;;;;;;;10.38;8.50;;;;;;;10.34;35.36;98923.73;1812579;79;20927;-66
2022/01/10 07:18:17;;;;;;;9.33;8.33;;;;;;;10.40;35.25;98929.66;1811971;78;21359;-64
2022/01/10 07:20:46;;;;;;;10.48;8.58;;;;;;;10.45;35.22;98928.61;1798919;78;21969;-64
2022/01/10 07:23:12;;;;;;;11.55;8.65;;;;;;;10.48;35.24;98930.38;1800523;79;21473;-66
2022/01/10 07:25:39;;;;;;;10.50;8.35;;;;;;;10.54;35.48;98932.81;1810454;78;21556;-65
2022/01/10 07:28:05;;;;;;;9.80;7.30;;;;;;;10.51;35.87;98935.84;1806714;78;21445;-65
2022/01/10 07:30:31;;;;;;;10.82;8.30;;;;;;;10.45;35.74;98942.70;1801767;79;20906;-67
2022/01/10 07:32:58;;;;;;;9.68;7.67;;;;;;;10.43;35.90;98942.07;1798962;78;21041;-65
2022/01/10 07:35:24;;;;;;;11.70;7.95;;;;;;;10.45;35.80;98944.56;1797118;78;20871;-63
2022/01/10 07:37:51;;;;;;;7.90;7.05;;;;;;;10.43;35.76;98947.39;1801539;79;20919;-61
2022/01/10 07:40:17;;;;;;;8.28;6.87;;;;;;;10.43;35.68;98946.56;1801954;78;20895;-61
2022/01/10 07:42:44;;;;;;;9.35;7.45;;;;;;;10.42;35.52;98951.58;1798755;78;20950;-63
2022/01/10 07:45:12;;;;;;;8.78;6.42;;;;;;;10.54;36.43;98956.75;1797003;78;21062;-61
2022/01/10 07:47:39;;;;;;;7.50;6.40;;;;;;;10.52;35.63;98959.61;1802744;78;21534;-62
2022/01/10 07:50:07;;;;;;;7.45;6.03;;;;;;;10.51;35.46;98961.11;1795524;79;20934;-64
2022/01/10 07:52:34;;;;;;;8.45;6.60;;;;;;;10.47;35.59;98966.48;1797869;78;20958;-64
2022/01/10 07:55:02;;;;;;;7.15;5.85;;;;;;;10.48;35.72;98968.94;1805869;78;20906;-64
2022/01/10 07:57:28;;;;;;;6.70;5.47;;;;;;;10.54;35.70;98968.22;1800219;79;21141;-64
2022/01/10 07:59:55;;;;;;;7.60;5.45;;;;;;;10.61;35.83;98966.97;1796883;78;20899;-63
2022/01/10 08:02:21;;;;;;;8.45;6.12;;;;;;;10.59;35.49;98982.30;1801181;78;20950;-65
2022/01/10 08:04:49;;;;;;;7.17;6.05;;;;;;;10.60;35.37;98976.48;1791349;79;22143;-64
2022/01/10 08:07:15;;;;;;;7.15;5.78;;;;;;;10.57;35.39;98982.16;1802905;78;20916;-64
2022/01/10 08:09:42;;;;;;;7.47;5.85;;;;;;;10.77;35.08;98996.56;1800040;78;21091;-65
2022/01/10 08:12:09;;;;;;;8.05;5.67;;;;;;;10.85;34.90;98998.64;1793006;78;20876;-63
2022/01/10 08:14:36;;;;;;;10.20;7.10;;;;;;;10.93;34.80;99005.70;1802883;78;20948;-66
2022/01/10 08:17:02;;;;;;;8.10;6.12;;;;;;;10.93;34.91;99005.20;1798184;79;21493;-67
2022/01/10 08:19:31;;;;;;;7.17;6.25;;;;;;;10.76;34.82;99009.07;1799466;79;20875;-63
2022/01/10 08:21:57;;;;;;;8.83;5.90;;;;;;;10.73;34.93;99017.41;1793656;79;21108;-64
2022/01/10 08:24:24;;;;;;;5.83;5.08;;;;;;;10.63;34.61;99018.19;1790236;79;20971;-63
2022/01/10 08:26:52;;;;;;;5.33;4.28;;;;;;;10.49;34.60;99018.48;1782776;79;20927;-63
2022/01/10 08:29:18;;;;;;;4.83;4.35;;;;;;;10.39;34.54;99017.08;1790302;79;20930;-64
2022/01/10 08:31:45;;;;;;;4.85;4.35;;;;;;;10.31;36.21;99025.13;1792335;79;20979;-64
2022/01/10 08:34:14;;;;;;;4.53;4.05;;;;;;;10.21;34.97;99027.20;1788047;79;21154;-63
2022/01/10 08:36:41;;;;;;;5.08;4.35;;;;;;;10.14;35.14;99041.70;1788838;79;20935;-65
2022/01/10 08:39:07;;;;;;;5.78;4.20;;;;;;;10.18;35.07;99039.52;1786380;79;21023;-64
2022/01/10 08:41:35;;;;;;;4.53;3.42;;;;;;;10.16;35.61;99039.71;1783018;79;21057;-64
2022/01/10 08:44:04;;;;;;;6.20;4.17;;;;;;;10.08;35.31;99046.88;1781073;79;21085;-67
2022/01/10 08:46:33;;;;;;;5.40;4.10;;;;;;;10.06;36.04;99049.73;1787351;79;21009;-63
2022/01/10 08:48:59;;;;;;;5.72;4.67;;;;;;;10.03;35.58;99061.20;1788984;79;21005;-63
2022/01/10 08:51:25;;;;;;;6.33;4.67;;;;;;;10.10;35.45;99051.02;1788355;79;21050;-65
2022/01/10 08:53:52;;;;;;;7.25;4.30;;;;;;;10.18;35.23;99047.00;1796613;79;21054;-62
2022/01/10 08:56:18;;;;;;;6.53;4.72;;;;;;;10.21;35.21;99053.30;1749921;81;21065;-61
2022/01/10 08:58:44;;;;;;;6.67;4.58;;;;;;;10.18;35.16;99058.13;1718992;82;21080;-63
2022/01/10 09:01:11;;;;;;;5.17;3.65;;;;;;;10.03;35.15;99057.22;1735750;82;21054;-62
2022/01/10 09:03:37;;;;;;;4.87;3.72;;;;;;;10.06;35.46;99048.39;1750347;81;20931;-61
2022/01/10 09:06:05;;;;;;;6.67;4.67;;;;;;;9.97;35.17;99057.41;1748720;81;20986;-62
2022/01/10 09:08:36;;;;;;;6.40;4.78;;;;;;;9.86;35.17;99055.98;1763801;81;20995;-62
2022/01/10 09:11:03;;;;;;;7.15;4.42;;;;;;;9.97;35.16;99070.70;1726446;80;21158;-62
2022/01/10 09:13:32;;;;;;;6.25;4.12;;;;;;;10.04;35.54;99065.53;1753191;80;20955;-61
2022/01/10 09:15:58;;;;;;;7.42;5.03;;;;;;;10.05;35.89;99066.66;1763168;80;20867;-62
2022/01/10 09:18:26;;;;;;;7.28;4.50;;;;;;;10.10;35.54;99069.61;1770656;80;20954;-62
2022/01/10 09:20:52;;;;;;;5.40;4.20;;;;;;;10.13;35.53;99061.33;1804005;78;20974;-62
2022/01/10 09:23:18;;;;;;;5.78;4.85;;;;;;;10.10;35.45;99066.13;1814815;78;21153;-61
2022/01/10 09:25:45;;;;;;;5.92;4.50;;;;;;;10.26;35.37;99062.05;1808920;78;21464;-62
2022/01/10 09:28:11;;;;;;;6.40;4.30;;;;;;;10.15;35.30;99071.77;1763103;80;21131;-62
2022/01/10 09:30:38;;;;;;;5.85;4.55;;;;;;;10.10;35.79;99074.94;1818784;78;21410;-60
2022/01/10 09:33:04;;;;;;;6.75;4.50;;;;;;;10.13;35.40;99079.93;1815264;78;21000;-62
2022/01/10 09:35:31;;;;;;;4.40;3.98;;;;;;;10.17;35.25;99076.39;1778025;80;21299;-62
2022/01/10 09:37:57;;;;;;;6.22;4.28;;;;;;;10.20;35.16;99076.05;1777579;80;20863;-64
2022/01/10 09:40:24;;;;;;;5.97;4.80;;;;;;;10.25;35.09;99076.34;1818384;78;20934;-62
2022/01/10 09:42:50;;;;;;;5.17;4.60;;;;;;;10.24;35.08;99072.88;1809789;78;21495;-62
2022/01/10 09:45:17;;;;;;;7.17;4.47;;;;;;;10.21;35.18;99076.38;1805414;78;21000;-63
2022/01/10 09:47:44;;;;;;;5.40;4.10;;;;;;;10.21;35.10;99079.88;1825118;78;21146;-62
2022/01/10 09:50:16;;;;;;;6.33;4.70;;;;;;;10.24;35.10;99074.70;1812325;78;21490;-63
2022/01/10 09:52:43;;;;;;;5.03;4.25;;;;;;;10.24;35.12;99071.55;1817893;78;20985;-61
2022/01/10 09:55:10;;;;;;;5.15;4.65;;;;;;;10.26;35.07;99075.34;1808793;78;21100;-63
2022/01/10 09:57:36;;;;;;;6.70;4.62;;;;;;;10.29;35.07;99078.48;1774874;80;20926;-65
2022/01/10 10:00:09;;;;;;;5.97;4.78;;;;;;;10.28;35.08;99084.80;1786349;80;21052;-64
2022/01/10 10:02:38;;;;;;;5.67;4.70;;;;;;;10.32;35.08;99078.63;1822710;78;21353;-60
2022/01/10 10:05:05;;;;;;;8.65;6.08;;;;;;;10.27;35.04;99091.63;1772502;80;20938;-67
2022/01/10 10:07:32;;;;;;;8.53;5.95;;;;;;;10.21;35.13;99086.52;1786635;80;20997;-64
2022/01/10 10:10:13;;;;;;;5.40;4.62;;;;;;;10.32;35.04;99101.23;1818639;78;21365;-62
2022/01/10 10:12:44;;;;;;;5.28;3.90;;;;;;;10.26;35.16;99096.61;1813805;78;21144;-64
2022/01/10 10:15:12;;;;;;;4.17;3.77;;;;;;;10.16;35.13;99102.67;1814173;78;20958;-64
2022/01/10 10:17:39;;;;;;;5.22;4.35;;;;;;;10.04;35.54;99107.52;1784823;79;22341;-63
2022/01/10 10:20:12;;;;;;;4.37;3.70;;;;;;;10.01;35.45;99109.72;1784985;78;20939;-64
2022/01/10 10:22:40;;;;;;;4.05;3.62;;;;;;;9.83;35.47;99107.30;1784380;78;21583;-64
2022/01/10 10:25:08;;;;;;;4.42;3.72;;;;;;;9.75;35.55;99108.18;1790003;79;21057;-65
2022/01/10 10:27:41;;;;;;;6.00;4.83;;;;;;;9.65;35.68;99111.55;1791716;78;20975;-65
2022/01/10 10:30:27;;;;;;;5.58;4.50;;;;;;;9.70;35.71;99114.52;1788493;78;20919;-66
2022/01/10 10:33:16;;;;;;;4.92;4.40;;;;;;;9.79;35.53;99121.95;1787987;79;20947;-65
2022/01/10 10:35:44;;;;;;;4.22;3.80;;;;;;;9.70;35.44;99114.52;1783795;78;21497;-65
2022/01/10 10:38:10;;;;;;;4.55;3.58;;;;;;;9.51;35.64;99128.73;1782791;78;21809;-66
2022/01/10 10:40:41;;;;;;;5.28;4.30;;;;;;;9.46;35.75;99133.23;1783666;78;20904;-64
2022/01/10 10:43:08;;;;;;;4.10;3.70;;;;;;;9.41;35.81;99137.39;1788176;79;20931;-66
2022/01/10 10:45:36;;;;;;;3.87;3.30;;;;;;;9.32;35.78;99140.56;1792065;79;21537;-66
2022/01/10 10:48:07;;;;;;;6.40;4.00;;;;;;;9.25;35.91;99139.59;1781992;78;21158;-64
2022/01/10 10:50:45;;;;;;;5.47;4.30;;;;;;;9.28;36.68;99142.72;1783824;79;21148;-65
2022/01/10 10:53:13;;;;;;;8.03;4.12;;;;;;;9.35;37.32;99153.50;1785146;78;20931;-66
2022/01/10 10:55:42;;;;;;;4.65;4.15;;;;;;;9.35;37.14;99157.48;1784010;78;21014;-65
2022/01/10 10:58:09;;;;;;;5.50;4.17;;;;;;;9.33;36.70;99149.67;1788767;78;21137;-66
2022/01/10 11:00:36;;;;;;;4.78;4.10;;;;;;;9.36;36.47;99160.45;1783898;78;20963;-65
2022/01/10 11:03:05;;;;;;;5.47;4.58;;;;;;;9.37;36.36;99163.45;1780724;79;20919;-66
2022/01/10 11:05:33;;;;;;;4.30;3.77;;;;;;;9.48;36.28;99168.40;1792567;78;20947;-66
2022/01/10 11:08:00;;;;;;;5.50;4.55;;;;;;;9.58;36.02;99173.01;1796390;78;21527;-65
2022/01/10 11:10:27;;;;;;;7.22;4.90;;;;;;;9.54;35.99;99173.00;1785954;79;21007;-63
2022/01/10 11:12:55;;;;;;;5.90;4.60;;;;;;;9.59;35.95;99170.70;1778730;78;20972;-64
2022/01/10 11:15:23;;;;;;;5.72;4.90;;;;;;;9.58;35.84;99180.14;1783195;78;21153;-63
2022/01/10 11:17:51;;;;;;;7.27;5.73;;;;;;;9.58;35.87;99183.63;1797850;79;20962;-66
2022/01/10 11:20:20;;;;;;;6.67;5.25;;;;;;;9.70;36.81;99185.41;1792447;79;21446;-65
2022/01/10 11:22:51;;;;;;;5.05;4.55;;;;;;;9.91;36.95;99183.83;1792446;79;20892;-65
2022/01/10 11:25:26;;;;;;;6.37;4.70;;;;;;;9.97;36.59;99182.31;1785308;79;20840;-62
2022/01/10 11:27:57;;;;;;;4.70;4.28;;;;;;;10.08;36.20;99185.92;1795017;79;21159;-65
2022/01/10 11:30:44;;;;;;;6.40;4.75;;;;;;;10.15;36.09;99178.92;1795118;79;20919;-64
2022/01/10 11:33:18;;;;;;;4.40;4.00;;;;;;;10.26;35.80;99192.33;1785282;79;20971;-63
2022/01/10 11:35:57;;;;;;;4.40;3.95;;;;;;;10.31;35.46;99185.48;1790222;79;21038;-66
2022/01/10 11:38:49;;;;;;;5.95;5.35;;;;;;;10.32;35.24;99199.61;1787034;79;20971;-64
2022/01/10 11:41:21;;;;;;;6.33;4.50;;;;;;;10.30;35.14;99201.09;1782781;79;21810;-68
2022/01/10 11:44:08;;;;;;;6.62;4.35;;;;;;;10.25;35.06;99204.78;1789001;79;21469;-65
2022/01/10 11:46:41;;;;;;;6.78;5.08;;;;;;;10.14;34.98;99195.06;1794894;79;20882;-66
2022/01/10 11:49:20;;;;;;;4.80;4.17;;;;;;;10.03;35.03;99208.70;1758880;81;21062;-64